Mount Vernon, Arkansas
Current Conditions -  °F | °C
As of 8:58 AM on Friday 24 Oct 2014 (Local Time) from KLRF Reporting Station
Clear Clear  
Wind Chill: 52°   Ceiling: Unl
Heat Index: 52°   Visibility: 10mi
Dew Point: 50°   Wind: 0mph
Humidity: 91%   Direction: NA
Pressure: 30.17"   Gusts: NA
Location:  35.23°N, 92.12°W
Report Text: KLRF 241358Z AUTO 00000KT 10SM CLR 11/10 A3017 RMK AO2 SLP219 T01130099
Loading
Personal Weather Stations






























Interactive Weather Map
Tropical Storm Tracking
New forecast layout! Learn more

10-Day Weather Forecast

Advertisements
Track Severe Weather on mobile